sensor_id;sensor_type;location;lat;lon;timestamp;P1;durP1;ratioP1;P2;durP2;ratioP2
76171;SDS011;64929;51.178;4.138;2022-11-15T00:01:37;14.73;;;5.25;;
76171;SDS011;64929;51.178;4.138;2022-11-15T00:04:03;11.55;;;6.22;;
76171;SDS011;64929;51.178;4.138;2022-11-15T00:06:29;8.05;;;4.15;;
76171;SDS011;64929;51.178;4.138;2022-11-15T00:08:59;6.55;;;3.70;;
76171;SDS011;64929;51.178;4.138;2022-11-15T00:11:25;8.90;;;4.95;;
76171;SDS011;64929;51.178;4.138;2022-11-15T00:13:54;9.60;;;4.22;;
76171;SDS011;64929;51.178;4.138;2022-11-15T00:16:21;7.32;;;4.32;;
76171;SDS011;64929;51.178;4.138;2022-11-15T00:18:47;8.50;;;4.72;;
76171;SDS011;64929;51.178;4.138;2022-11-15T00:21:13;7.30;;;3.85;;
76171;SDS011;64929;51.178;4.138;2022-11-15T00:23:40;5.70;;;4.15;;
76171;SDS011;64929;51.178;4.138;2022-11-15T00:26:06;8.63;;;4.80;;
76171;SDS011;64929;51.178;4.138;2022-11-15T00:28:35;5.50;;;3.77;;
76171;SDS011;64929;51.178;4.138;2022-11-15T00:31:05;9.52;;;4.35;;
76171;SDS011;64929;51.178;4.138;2022-11-15T00:33:33;7.65;;;4.13;;
76171;SDS011;64929;51.178;4.138;2022-11-15T00:36:03;8.65;;;4.32;;
76171;SDS011;64929;51.178;4.138;2022-11-15T00:38:30;6.25;;;3.72;;
76171;SDS011;64929;51.178;4.138;2022-11-15T00:40:57;7.70;;;3.38;;
76171;SDS011;64929;51.178;4.138;2022-11-15T00:43:23;5.63;;;3.72;;
76171;SDS011;64929;51.178;4.138;2022-11-15T00:45:48;5.38;;;3.25;;
76171;SDS011;64929;51.178;4.138;2022-11-15T00:48:14;5.35;;;4.40;;
76171;SDS011;64929;51.178;4.138;2022-11-15T00:50:39;5.72;;;3.45;;
76171;SDS011;64929;51.178;4.138;2022-11-15T00:53:05;7.80;;;4.15;;
76171;SDS011;64929;51.178;4.138;2022-11-15T00:55:31;6.10;;;4.43;;
76171;SDS011;64929;51.178;4.138;2022-11-15T00:57:56;5.45;;;3.55;;
76171;SDS011;64929;51.178;4.138;2022-11-15T01:00:22;7.30;;;3.25;;
76171;SDS011;64929;51.178;4.138;2022-11-15T01:02:48;3.83;;;2.80;;
76171;SDS011;64929;51.178;4.138;2022-11-15T01:05:14;4.20;;;3.30;;
76171;SDS011;64929;51.178;4.138;2022-11-15T01:07:39;5.57;;;2.63;;
76171;SDS011;64929;51.178;4.138;2022-11-15T01:10:05;7.28;;;4.35;;
76171;SDS011;64929;51.178;4.138;2022-11-15T01:12:31;7.60;;;4.30;;
76171;SDS011;64929;51.178;4.138;2022-11-15T01:14:57;6.45;;;3.85;;
76171;SDS011;64929;51.178;4.138;2022-11-15T01:17:23;4.70;;;3.22;;
76171;SDS011;64929;51.178;4.138;2022-11-15T01:19:49;4.72;;;3.42;;
76171;SDS011;64929;51.178;4.138;2022-11-15T01:22:14;7.53;;;3.53;;
76171;SDS011;64929;51.178;4.138;2022-11-15T01:24:40;11.45;;;3.50;;
76171;SDS011;64929;51.178;4.138;2022-11-15T01:27:05;5.50;;;3.78;;
76171;SDS011;64929;51.178;4.138;2022-11-15T01:29:31;4.20;;;3.03;;
76171;SDS011;64929;51.178;4.138;2022-11-15T01:31:57;5.63;;;3.72;;
76171;SDS011;64929;51.178;4.138;2022-11-15T01:34:22;3.95;;;2.85;;
76171;SDS011;64929;51.178;4.138;2022-11-15T01:36:48;4.15;;;2.53;;
76171;SDS011;64929;51.178;4.138;2022-11-15T01:39:14;7.05;;;3.03;;
76171;SDS011;64929;51.178;4.138;2022-11-15T01:41:40;8.82;;;4.40;;
76171;SDS011;64929;51.178;4.138;2022-11-15T01:47:18;6.78;;;4.28;;
76171;SDS011;64929;51.178;4.138;2022-11-15T01:49:51;5.45;;;2.88;;
76171;SDS011;64929;51.178;4.138;2022-11-15T01:52:19;4.32;;;3.22;;
76171;SDS011;64929;51.178;4.138;2022-11-15T01:54:48;5.15;;;3.20;;
76171;SDS011;64929;51.178;4.138;2022-11-15T01:57:16;4.03;;;2.92;;
76171;SDS011;64929;51.178;4.138;2022-11-15T01:59:43;8.55;;;3.13;;
76171;SDS011;64929;51.178;4.138;2022-11-15T02:02:10;3.70;;;2.53;;
76171;SDS011;64929;51.178;4.138;2022-11-15T02:04:37;6.38;;;3.88;;
76171;SDS011;64929;51.178;4.138;2022-11-15T02:07:12;5.30;;;2.90;;
76171;SDS011;64929;51.178;4.138;2022-11-15T02:09:40;5.32;;;3.42;;
76171;SDS011;64929;51.178;4.138;2022-11-15T02:12:07;4.40;;;2.92;;
76171;SDS011;64929;51.178;4.138;2022-11-15T02:14:34;5.70;;;2.75;;
76171;SDS011;64929;51.178;4.138;2022-11-15T02:27:57;4.25;;;2.78;;
76171;SDS011;64929;51.178;4.138;2022-11-15T02:31:06;4.88;;;3.17;;
76171;SDS011;64929;51.178;4.138;2022-11-15T02:33:40;4.10;;;2.85;;
76171;SDS011;64929;51.178;4.138;2022-11-15T02:36:26;4.72;;;3.22;;
76171;SDS011;64929;51.178;4.138;2022-11-15T02:42:11;7.00;;;2.80;;
76171;SDS011;64929;51.178;4.138;2022-11-15T02:45:02;4.22;;;2.47;;
76171;SDS011;64929;51.178;4.138;2022-11-15T02:47:32;3.25;;;2.72;;
76171;SDS011;64929;51.178;4.138;2022-11-15T02:50:01;4.32;;;2.55;;
76171;SDS011;64929;51.178;4.138;2022-11-15T02:52:33;3.00;;;2.35;;
76171;SDS011;64929;51.178;4.138;2022-11-15T02:54:59;4.88;;;3.03;;
76171;SDS011;64929;51.178;4.138;2022-11-15T03:00:11;5.43;;;2.90;;
76171;SDS011;64929;51.178;4.138;2022-11-15T03:08:17;4.80;;;2.13;;
76171;SDS011;64929;51.178;4.138;2022-11-15T03:11:18;6.47;;;2.92;;
76171;SDS011;64929;51.178;4.138;2022-11-15T03:16:31;2.42;;;2.05;;
76171;SDS011;64929;51.178;4.138;2022-11-15T03:19:12;3.35;;;2.20;;
76171;SDS011;64929;51.178;4.138;2022-11-15T03:21:42;2.50;;;1.90;;
76171;SDS011;64929;51.178;4.138;2022-11-15T03:24:12;6.07;;;2.63;;
76171;SDS011;64929;51.178;4.138;2022-11-15T03:26:41;5.13;;;3.00;;
76171;SDS011;64929;51.178;4.138;2022-11-15T03:29:11;4.53;;;2.58;;
76171;SDS011;64929;51.178;4.138;2022-11-15T03:31:45;3.20;;;2.42;;
76171;SDS011;64929;51.178;4.138;2022-11-15T03:36:52;5.30;;;2.45;;
76171;SDS011;64929;51.178;4.138;2022-11-15T03:39:18;4.20;;;2.30;;
76171;SDS011;64929;51.178;4.138;2022-11-15T03:47:23;5.13;;;2.75;;
76171;SDS011;64929;51.178;4.138;2022-11-15T03:50:08;4.70;;;2.85;;
76171;SDS011;64929;51.178;4.138;2022-11-15T03:52:40;4.03;;;2.15;;
76171;SDS011;64929;51.178;4.138;2022-11-15T03:55:07;2.97;;;1.98;;
76171;SDS011;64929;51.178;4.138;2022-11-15T03:57:35;6.45;;;2.88;;
76171;SDS011;64929;51.178;4.138;2022-11-15T04:00:01;4.35;;;1.98;;
76171;SDS011;64929;51.178;4.138;2022-11-15T04:02:28;2.63;;;2.13;;
76171;SDS011;64929;51.178;4.138;2022-11-15T04:04:53;3.38;;;2.33;;
76171;SDS011;64929;51.178;4.138;2022-11-15T04:07:19;3.22;;;2.92;;
76171;SDS011;64929;51.178;4.138;2022-11-15T04:09:45;5.38;;;2.83;;
76171;SDS011;64929;51.178;4.138;2022-11-15T04:12:29;3.67;;;1.90;;
76171;SDS011;64929;51.178;4.138;2022-11-15T04:15:00;4.80;;;1.90;;
76171;SDS011;64929;51.178;4.138;2022-11-15T04:17:35;5.53;;;2.53;;
76171;SDS011;64929;51.178;4.138;2022-11-15T04:23:01;2.78;;;2.45;;
76171;SDS011;64929;51.178;4.138;2022-11-15T04:25:47;2.85;;;1.88;;
76171;SDS011;64929;51.178;4.138;2022-11-15T04:28:16;3.38;;;2.35;;
76171;SDS011;64929;51.178;4.138;2022-11-15T04:30:42;2.78;;;1.40;;
76171;SDS011;64929;51.178;4.138;2022-11-15T04:33:07;5.22;;;2.83;;
76171;SDS011;64929;51.178;4.138;2022-11-15T04:35:33;2.83;;;1.33;;
76171;SDS011;64929;51.178;4.138;2022-11-15T04:37:59;4.00;;;1.65;;
76171;SDS011;64929;51.178;4.138;2022-11-15T04:40:25;3.72;;;1.75;;
76171;SDS011;64929;51.178;4.138;2022-11-15T04:42:51;3.40;;;1.85;;
76171;SDS011;64929;51.178;4.138;2022-11-15T04:45:17;6.65;;;2.30;;
76171;SDS011;64929;51.178;4.138;2022-11-15T04:47:45;3.35;;;1.88;;
76171;SDS011;64929;51.178;4.138;2022-11-15T04:50:12;3.95;;;2.30;;
76171;SDS011;64929;51.178;4.138;2022-11-15T04:52:40;3.15;;;1.55;;
76171;SDS011;64929;51.178;4.138;2022-11-15T04:55:07;9.05;;;2.47;;
76171;SDS011;64929;51.178;4.138;2022-11-15T04:57:33;2.67;;;1.85;;
76171;SDS011;64929;51.178;4.138;2022-11-15T04:59:59;4.28;;;1.85;;
76171;SDS011;64929;51.178;4.138;2022-11-15T05:02:25;1.90;;;1.35;;
76171;SDS011;64929;51.178;4.138;2022-11-15T05:05:10;3.22;;;2.03;;
76171;SDS011;64929;51.178;4.138;2022-11-15T05:07:36;2.10;;;1.50;;
76171;SDS011;64929;51.178;4.138;2022-11-15T05:10:01;2.55;;;1.98;;
76171;SDS011;64929;51.178;4.138;2022-11-15T05:12:27;2.88;;;1.40;;
76171;SDS011;64929;51.178;4.138;2022-11-15T05:14:53;2.72;;;1.48;;
76171;SDS011;64929;51.178;4.138;2022-11-15T05:17:18;4.30;;;1.67;;
76171;SDS011;64929;51.178;4.138;2022-11-15T05:19:44;2.00;;;1.80;;
76171;SDS011;64929;51.178;4.138;2022-11-15T05:22:10;1.02;;;0.95;;
76171;SDS011;64929;51.178;4.138;2022-11-15T05:24:35;2.10;;;1.60;;
76171;SDS011;64929;51.178;4.138;2022-11-15T05:27:01;1.20;;;0.77;;
76171;SDS011;64929;51.178;4.138;2022-11-15T05:29:27;1.63;;;1.20;;
76171;SDS011;64929;51.178;4.138;2022-11-15T05:31:52;3.25;;;1.85;;
76171;SDS011;64929;51.178;4.138;2022-11-15T05:34:18;2.47;;;1.30;;
76171;SDS011;64929;51.178;4.138;2022-11-15T05:36:43;0.82;;;0.82;;
76171;SDS011;64929;51.178;4.138;2022-11-15T05:39:10;1.27;;;1.10;;
76171;SDS011;64929;51.178;4.138;2022-11-15T05:41:59;10.88;;;1.58;;
76171;SDS011;64929;51.178;4.138;2022-11-15T05:44:27;3.10;;;1.67;;
76171;SDS011;64929;51.178;4.138;2022-11-15T05:46:53;8.82;;;4.40;;
76171;SDS011;64929;51.178;4.138;2022-11-15T05:49:21;11.18;;;4.78;;
76171;SDS011;64929;51.178;4.138;2022-11-15T05:51:49;6.43;;;3.38;;
76171;SDS011;64929;51.178;4.138;2022-11-15T05:54:16;11.15;;;3.33;;
76171;SDS011;64929;51.178;4.138;2022-11-15T05:56:44;4.28;;;2.25;;
76171;SDS011;64929;51.178;4.138;2022-11-15T05:59:10;2.15;;;1.80;;
76171;SDS011;64929;51.178;4.138;2022-11-15T06:01:36;4.40;;;1.55;;
76171;SDS011;64929;51.178;4.138;2022-11-15T06:04:03;2.58;;;1.35;;
76171;SDS011;64929;51.178;4.138;2022-11-15T06:06:29;7.45;;;1.90;;
76171;SDS011;64929;51.178;4.138;2022-11-15T06:08:54;3.10;;;1.20;;
76171;SDS011;64929;51.178;4.138;2022-11-15T06:11:20;4.32;;;0.98;;
76171;SDS011;64929;51.178;4.138;2022-11-15T06:13:46;3.38;;;0.90;;
76171;SDS011;64929;51.178;4.138;2022-11-15T06:16:12;1.00;;;0.80;;
76171;SDS011;64929;51.178;4.138;2022-11-15T06:18:38;2.65;;;1.92;;
76171;SDS011;64929;51.178;4.138;2022-11-15T06:21:04;2.08;;;1.73;;
76171;SDS011;64929;51.178;4.138;2022-11-15T06:23:33;2.20;;;0.77;;
76171;SDS011;64929;51.178;4.138;2022-11-15T06:26:00;1.63;;;0.77;;
76171;SDS011;64929;51.178;4.138;2022-11-15T06:28:30;1.60;;;1.25;;
76171;SDS011;64929;51.178;4.138;2022-11-15T06:31:01;1.73;;;1.00;;
76171;SDS011;64929;51.178;4.138;2022-11-15T06:33:28;4.38;;;1.30;;
76171;SDS011;64929;51.178;4.138;2022-11-15T06:35:53;2.45;;;1.25;;
76171;SDS011;64929;51.178;4.138;2022-11-15T06:38:19;1.30;;;1.05;;
76171;SDS011;64929;51.178;4.138;2022-11-15T06:40:45;1.38;;;0.80;;
76171;SDS011;64929;51.178;4.138;2022-11-15T06:43:10;1.20;;;1.08;;
76171;SDS011;64929;51.178;4.138;2022-11-15T06:45:36;2.17;;;1.23;;
76171;SDS011;64929;51.178;4.138;2022-11-15T06:48:05;6.10;;;1.60;;
76171;SDS011;64929;51.178;4.138;2022-11-15T06:50:31;2.67;;;1.45;;
76171;SDS011;64929;51.178;4.138;2022-11-15T06:53:00;1.08;;;0.77;;
76171;SDS011;64929;51.178;4.138;2022-11-15T06:55:26;1.52;;;1.10;;
76171;SDS011;64929;51.178;4.138;2022-11-15T06:57:52;2.28;;;1.27;;
76171;SDS011;64929;51.178;4.138;2022-11-15T07:00:18;2.58;;;1.67;;
76171;SDS011;64929;51.178;4.138;2022-11-15T07:02:45;3.80;;;1.40;;
76171;SDS011;64929;51.178;4.138;2022-11-15T07:05:11;1.88;;;1.50;;
76171;SDS011;64929;51.178;4.138;2022-11-15T07:07:38;4.97;;;2.25;;
76171;SDS011;64929;51.178;4.138;2022-11-15T07:10:04;4.68;;;1.92;;
76171;SDS011;64929;51.178;4.138;2022-11-15T07:12:30;2.83;;;1.58;;
76171;SDS011;64929;51.178;4.138;2022-11-15T07:14:55;2.70;;;1.40;;
76171;SDS011;64929;51.178;4.138;2022-11-15T07:17:21;1.05;;;0.93;;
76171;SDS011;64929;51.178;4.138;2022-11-15T07:19:47;0.77;;;0.70;;
76171;SDS011;64929;51.178;4.138;2022-11-15T07:22:12;0.80;;;0.70;;
76171;SDS011;64929;51.178;4.138;2022-11-15T07:24:38;1.17;;;0.98;;
76171;SDS011;64929;51.178;4.138;2022-11-15T07:27:04;0.82;;;0.65;;
76171;SDS011;64929;51.178;4.138;2022-11-15T07:29:29;1.00;;;0.82;;
76171;SDS011;64929;51.178;4.138;2022-11-15T07:31:55;1.73;;;1.00;;
76171;SDS011;64929;51.178;4.138;2022-11-15T07:34:23;1.38;;;1.15;;
76171;SDS011;64929;51.178;4.138;2022-11-15T07:36:49;0.70;;;0.70;;
76171;SDS011;64929;51.178;4.138;2022-11-15T07:39:15;1.38;;;1.00;;
76171;SDS011;64929;51.178;4.138;2022-11-15T07:41:41;2.97;;;2.20;;
76171;SDS011;64929;51.178;4.138;2022-11-15T07:44:08;1.48;;;1.10;;
76171;SDS011;64929;51.178;4.138;2022-11-15T07:46:34;1.33;;;0.82;;
76171;SDS011;64929;51.178;4.138;2022-11-15T07:48:59;1.67;;;0.90;;
76171;SDS011;64929;51.178;4.138;2022-11-15T07:51:25;2.25;;;0.80;;
76171;SDS011;64929;51.178;4.138;2022-11-15T07:53:51;3.13;;;0.70;;
76171;SDS011;64929;51.178;4.138;2022-11-15T07:56:16;2.00;;;1.15;;
76171;SDS011;64929;51.178;4.138;2022-11-15T07:58:42;2.63;;;1.70;;
76171;SDS011;64929;51.178;4.138;2022-11-15T08:01:10;1.58;;;1.00;;
76171;SDS011;64929;51.178;4.138;2022-11-15T08:03:36;1.58;;;1.27;;
76171;SDS011;64929;51.178;4.138;2022-11-15T08:06:02;1.98;;;0.85;;
76171;SDS011;64929;51.178;4.138;2022-11-15T08:08:28;2.20;;;1.13;;
76171;SDS011;64929;51.178;4.138;2022-11-15T08:10:54;3.60;;;1.55;;
76171;SDS011;64929;51.178;4.138;2022-11-15T08:13:19;1.05;;;0.95;;
76171;SDS011;64929;51.178;4.138;2022-11-15T08:15:46;2.30;;;1.23;;
76171;SDS011;64929;51.178;4.138;2022-11-15T08:18:15;1.55;;;0.90;;
76171;SDS011;64929;51.178;4.138;2022-11-15T08:20:42;1.70;;;0.80;;
76171;SDS011;64929;51.178;4.138;2022-11-15T08:23:08;3.50;;;1.13;;
76171;SDS011;64929;51.178;4.138;2022-11-15T08:25:36;1.52;;;0.70;;
76171;SDS011;64929;51.178;4.138;2022-11-15T08:28:04;1.58;;;0.80;;
76171;SDS011;64929;51.178;4.138;2022-11-15T08:30:30;2.75;;;0.80;;
76171;SDS011;64929;51.178;4.138;2022-11-15T08:33:00;1.45;;;0.70;;
76171;SDS011;64929;51.178;4.138;2022-11-15T08:35:25;1.08;;;0.88;;
76171;SDS011;64929;51.178;4.138;2022-11-15T08:37:52;2.35;;;0.70;;
76171;SDS011;64929;51.178;4.138;2022-11-15T08:40:18;0.80;;;0.50;;
76171;SDS011;64929;51.178;4.138;2022-11-15T08:42:45;1.30;;;1.10;;
76171;SDS011;64929;51.178;4.138;2022-11-15T08:45:12;0.68;;;0.50;;
76171;SDS011;64929;51.178;4.138;2022-11-15T08:47:38;0.80;;;0.60;;
76171;SDS011;64929;51.178;4.138;2022-11-15T08:50:04;1.02;;;0.50;;
76171;SDS011;64929;51.178;4.138;2022-11-15T08:52:30;1.55;;;0.55;;
76171;SDS011;64929;51.178;4.138;2022-11-15T08:54:56;0.52;;;0.40;;
76171;SDS011;64929;51.178;4.138;2022-11-15T08:57:22;2.15;;;0.68;;
76171;SDS011;64929;51.178;4.138;2022-11-15T08:59:48;0.70;;;0.50;;
76171;SDS011;64929;51.178;4.138;2022-11-15T09:02:14;0.98;;;0.63;;
76171;SDS011;64929;51.178;4.138;2022-11-15T09:04:43;1.52;;;1.08;;
76171;SDS011;64929;51.178;4.138;2022-11-15T09:07:12;1.50;;;0.60;;
76171;SDS011;64929;51.178;4.138;2022-11-15T09:09:38;3.97;;;0.65;;
76171;SDS011;64929;51.178;4.138;2022-11-15T09:12:04;1.10;;;0.93;;
76171;SDS011;64929;51.178;4.138;2022-11-15T09:14:31;1.13;;;0.60;;
76171;SDS011;64929;51.178;4.138;2022-11-15T09:16:56;2.50;;;0.73;;
76171;SDS011;64929;51.178;4.138;2022-11-15T09:19:23;1.20;;;0.30;;
76171;SDS011;64929;51.178;4.138;2022-11-15T09:21:48;0.40;;;0.40;;
76171;SDS011;64929;51.178;4.138;2022-11-15T09:24:14;2.67;;;0.73;;
76171;SDS011;64929;51.178;4.138;2022-11-15T09:26:40;0.65;;;0.45;;
76171;SDS011;64929;51.178;4.138;2022-11-15T09:29:06;3.35;;;0.40;;
76171;SDS011;64929;51.178;4.138;2022-11-15T09:31:31;3.58;;;1.10;;
76171;SDS011;64929;51.178;4.138;2022-11-15T09:33:57;1.45;;;0.68;;
76171;SDS011;64929;51.178;4.138;2022-11-15T09:36:23;1.15;;;0.80;;
76171;SDS011;64929;51.178;4.138;2022-11-15T09:38:49;2.15;;;0.93;;
76171;SDS011;64929;51.178;4.138;2022-11-15T09:41:20;1.30;;;0.90;;
76171;SDS011;64929;51.178;4.138;2022-11-15T09:47:27;2.67;;;1.00;;
76171;SDS011;64929;51.178;4.138;2022-11-15T09:50:15;1.10;;;0.47;;
76171;SDS011;64929;51.178;4.138;2022-11-15T09:52:45;1.63;;;0.50;;
76171;SDS011;64929;51.178;4.138;2022-11-15T09:55:14;5.68;;;1.40;;
76171;SDS011;64929;51.178;4.138;2022-11-15T09:57:57;1.65;;;0.55;;
76171;SDS011;64929;51.178;4.138;2022-11-15T10:00:39;0.90;;;0.60;;
76171;SDS011;64929;51.178;4.138;2022-11-15T10:05:47;1.05;;;0.50;;
76171;SDS011;64929;51.178;4.138;2022-11-15T10:11:09;1.80;;;0.50;;
76171;SDS011;64929;51.178;4.138;2022-11-15T10:13:38;1.67;;;0.32;;
76171;SDS011;64929;51.178;4.138;2022-11-15T10:18:54;3.08;;;0.60;;
76171;SDS011;64929;51.178;4.138;2022-11-15T10:21:46;2.95;;;0.30;;
76171;SDS011;64929;51.178;4.138;2022-11-15T10:24:23;6.32;;;0.85;;
76171;SDS011;64929;51.178;4.138;2022-11-15T10:26:53;2.50;;;0.45;;
76171;SDS011;64929;51.178;4.138;2022-11-15T10:29:21;5.07;;;0.77;;
76171;SDS011;64929;51.178;4.138;2022-11-15T10:31:47;2.25;;;0.57;;
76171;SDS011;64929;51.178;4.138;2022-11-15T10:34:14;7.47;;;0.95;;
76171;SDS011;64929;51.178;4.138;2022-11-15T10:36:44;0.85;;;0.65;;
76171;SDS011;64929;51.178;4.138;2022-11-15T10:39:19;2.90;;;0.52;;
76171;SDS011;64929;51.178;4.138;2022-11-15T10:41:44;1.27;;;0.70;;
76171;SDS011;64929;51.178;4.138;2022-11-15T10:46:42;4.78;;;0.73;;
76171;SDS011;64929;51.178;4.138;2022-11-15T10:49:18;3.65;;;0.80;;
76171;SDS011;64929;51.178;4.138;2022-11-15T10:51:59;1.70;;;0.88;;
76171;SDS011;64929;51.178;4.138;2022-11-15T10:54:40;2.17;;;0.35;;
76171;SDS011;64929;51.178;4.138;2022-11-15T10:57:13;0.38;;;0.32;;
76171;SDS011;64929;51.178;4.138;2022-11-15T10:59:42;5.05;;;0.73;;
76171;SDS011;64929;51.178;4.138;2022-11-15T11:05:24;0.17;;;0.17;;
76171;SDS011;64929;51.178;4.138;2022-11-15T11:07:58;6.68;;;1.05;;
76171;SDS011;64929;51.178;4.138;2022-11-15T11:10:39;0.30;;;0.20;;
76171;SDS011;64929;51.178;4.138;2022-11-15T11:13:25;1.63;;;0.38;;
76171;SDS011;64929;51.178;4.138;2022-11-15T11:21:46;2.33;;;0.70;;
76171;SDS011;64929;51.178;4.138;2022-11-15T11:24:30;2.28;;;0.38;;
76171;SDS011;64929;51.178;4.138;2022-11-15T11:29:41;1.67;;;0.60;;
76171;SDS011;64929;51.178;4.138;2022-11-15T11:32:34;1.23;;;0.68;;
76171;SDS011;64929;51.178;4.138;2022-11-15T11:35:56;6.60;;;1.88;;
76171;SDS011;64929;51.178;4.138;2022-11-15T11:57:06;5.15;;;1.00;;
76171;SDS011;64929;51.178;4.138;2022-11-15T11:59:56;1.02;;;0.30;;
76171;SDS011;64929;51.178;4.138;2022-11-15T12:02:43;2.47;;;0.65;;
76171;SDS011;64929;51.178;4.138;2022-11-15T12:05:15;1.02;;;0.63;;
76171;SDS011;64929;51.178;4.138;2022-11-15T12:07:48;1.02;;;0.30;;
76171;SDS011;64929;51.178;4.138;2022-11-15T12:15:33;1.25;;;0.55;;
76171;SDS011;64929;51.178;4.138;2022-11-15T12:18:08;1.17;;;0.57;;
76171;SDS011;64929;51.178;4.138;2022-11-15T12:20:39;4.68;;;0.77;;
76171;SDS011;64929;51.178;4.138;2022-11-15T12:23:14;3.63;;;0.93;;
76171;SDS011;64929;51.178;4.138;2022-11-15T12:28:38;0.85;;;0.40;;
76171;SDS011;64929;51.178;4.138;2022-11-15T12:33:49;3.60;;;0.35;;
76171;SDS011;64929;51.178;4.138;2022-11-15T12:38:49;2.05;;;0.30;;
76171;SDS011;64929;51.178;4.138;2022-11-15T12:41:31;1.35;;;0.38;;
76171;SDS011;64929;51.178;4.138;2022-11-15T12:43:57;1.25;;;0.60;;
76171;SDS011;64929;51.178;4.138;2022-11-15T13:02:27;4.25;;;0.65;;
76171;SDS011;64929;51.178;4.138;2022-11-15T13:22:48;2.50;;;0.30;;
76171;SDS011;64929;51.178;4.138;2022-11-15T13:30:40;3.15;;;0.60;;
76171;SDS011;64929;51.178;4.138;2022-11-15T13:33:25;3.13;;;0.55;;
76171;SDS011;64929;51.178;4.138;2022-11-15T13:36:06;1.98;;;0.80;;
76171;SDS011;64929;51.178;4.138;2022-11-15T13:38:42;2.05;;;0.95;;
76171;SDS011;64929;51.178;4.138;2022-11-15T13:41:16;2.65;;;0.30;;
76171;SDS011;64929;51.178;4.138;2022-11-15T13:43:45;0.55;;;0.52;;
76171;SDS011;64929;51.178;4.138;2022-11-15T13:46:12;7.03;;;1.13;;
76171;SDS011;64929;51.178;4.138;2022-11-15T13:48:41;3.50;;;0.70;;
76171;SDS011;64929;51.178;4.138;2022-11-15T13:51:31;5.82;;;1.00;;
76171;SDS011;64929;51.178;4.138;2022-11-15T13:54:01;0.68;;;0.43;;
76171;SDS011;64929;51.178;4.138;2022-11-15T13:56:37;2.47;;;0.60;;
76171;SDS011;64929;51.178;4.138;2022-11-15T13:59:10;1.20;;;0.73;;
76171;SDS011;64929;51.178;4.138;2022-11-15T14:01:45;0.95;;;0.50;;
76171;SDS011;64929;51.178;4.138;2022-11-15T14:04:12;3.33;;;0.52;;
76171;SDS011;64929;51.178;4.138;2022-11-15T14:06:47;3.45;;;0.60;;
76171;SDS011;64929;51.178;4.138;2022-11-15T14:09:24;1.15;;;0.30;;
76171;SDS011;64929;51.178;4.138;2022-11-15T14:11:58;2.13;;;0.85;;
76171;SDS011;64929;51.178;4.138;2022-11-15T14:14:25;1.30;;;0.60;;
76171;SDS011;64929;51.178;4.138;2022-11-15T14:16:59;1.77;;;0.75;;
76171;SDS011;64929;51.178;4.138;2022-11-15T14:25:33;2.00;;;0.75;;
76171;SDS011;64929;51.178;4.138;2022-11-15T14:28:06;1.77;;;0.82;;
76171;SDS011;64929;51.178;4.138;2022-11-15T14:30:48;2.22;;;0.70;;
76171;SDS011;64929;51.178;4.138;2022-11-15T14:33:20;4.25;;;0.90;;
76171;SDS011;64929;51.178;4.138;2022-11-15T14:38:12;3.15;;;0.22;;
76171;SDS011;64929;51.178;4.138;2022-11-15T14:40:38;4.75;;;0.50;;
76171;SDS011;64929;51.178;4.138;2022-11-15T14:43:03;1.25;;;0.55;;
76171;SDS011;64929;51.178;4.138;2022-11-15T14:45:29;0.63;;;0.60;;
76171;SDS011;64929;51.178;4.138;2022-11-15T14:47:55;0.63;;;0.52;;
76171;SDS011;64929;51.178;4.138;2022-11-15T14:50:21;1.85;;;0.90;;
76171;SDS011;64929;51.178;4.138;2022-11-15T14:52:47;1.15;;;0.55;;
76171;SDS011;64929;51.178;4.138;2022-11-15T14:55:23;0.50;;;0.40;;
76171;SDS011;64929;51.178;4.138;2022-11-15T14:57:53;1.00;;;0.77;;
76171;SDS011;64929;51.178;4.138;2022-11-15T15:00:20;1.67;;;0.85;;
76171;SDS011;64929;51.178;4.138;2022-11-15T15:02:47;0.98;;;0.50;;
76171;SDS011;64929;51.178;4.138;2022-11-15T15:05:15;0.65;;;0.50;;
76171;SDS011;64929;51.178;4.138;2022-11-15T15:07:46;2.00;;;0.90;;
76171;SDS011;64929;51.178;4.138;2022-11-15T15:10:12;1.52;;;0.40;;
76171;SDS011;64929;51.178;4.138;2022-11-15T15:12:39;1.08;;;0.45;;
76171;SDS011;64929;51.178;4.138;2022-11-15T15:15:06;0.80;;;0.50;;
76171;SDS011;64929;51.178;4.138;2022-11-15T15:17:48;1.15;;;0.40;;
76171;SDS011;64929;51.178;4.138;2022-11-15T15:20:14;2.30;;;0.50;;
76171;SDS011;64929;51.178;4.138;2022-11-15T15:22:40;1.27;;;0.50;;
76171;SDS011;64929;51.178;4.138;2022-11-15T15:25:22;2.10;;;0.50;;
76171;SDS011;64929;51.178;4.138;2022-11-15T15:27:52;1.63;;;0.50;;
76171;SDS011;64929;51.178;4.138;2022-11-15T15:30:18;2.85;;;0.65;;
76171;SDS011;64929;51.178;4.138;2022-11-15T15:32:43;0.50;;;0.43;;
76171;SDS011;64929;51.178;4.138;2022-11-15T15:35:11;6.35;;;0.52;;
76171;SDS011;64929;51.178;4.138;2022-11-15T15:37:38;0.65;;;0.47;;
76171;SDS011;64929;51.178;4.138;2022-11-15T15:40:08;1.02;;;0.75;;
76171;SDS011;64929;51.178;4.138;2022-11-15T15:42:39;7.30;;;0.88;;
76171;SDS011;64929;51.178;4.138;2022-11-15T15:45:04;0.75;;;0.73;;
76171;SDS011;64929;51.178;4.138;2022-11-15T15:47:30;0.43;;;0.30;;
76171;SDS011;64929;51.178;4.138;2022-11-15T15:49:56;0.40;;;0.38;;
76171;SDS011;64929;51.178;4.138;2022-11-15T15:52:22;1.02;;;0.40;;
76171;SDS011;64929;51.178;4.138;2022-11-15T15:54:47;0.63;;;0.60;;
76171;SDS011;64929;51.178;4.138;2022-11-15T15:57:13;0.75;;;0.75;;
76171;SDS011;64929;51.178;4.138;2022-11-15T15:59:39;1.27;;;0.38;;
76171;SDS011;64929;51.178;4.138;2022-11-15T16:02:05;0.95;;;0.70;;
76171;SDS011;64929;51.178;4.138;2022-11-15T16:04:31;1.95;;;1.05;;
76171;SDS011;64929;51.178;4.138;2022-11-15T16:07:00;0.50;;;0.30;;
76171;SDS011;64929;51.178;4.138;2022-11-15T16:09:26;1.13;;;0.60;;
76171;SDS011;64929;51.178;4.138;2022-11-15T16:12:11;0.40;;;0.40;;
76171;SDS011;64929;51.178;4.138;2022-11-15T16:14:36;0.70;;;0.68;;
76171;SDS011;64929;51.178;4.138;2022-11-15T16:17:02;0.47;;;0.47;;
76171;SDS011;64929;51.178;4.138;2022-11-15T16:19:28;0.47;;;0.47;;
76171;SDS011;64929;51.178;4.138;2022-11-15T16:21:55;1.65;;;0.90;;
76171;SDS011;64929;51.178;4.138;2022-11-15T16:24:22;0.75;;;0.60;;
76171;SDS011;64929;51.178;4.138;2022-11-15T16:26:48;0.50;;;0.50;;
76171;SDS011;64929;51.178;4.138;2022-11-15T16:29:15;0.70;;;0.60;;
76171;SDS011;64929;51.178;4.138;2022-11-15T16:31:41;1.10;;;0.52;;
76171;SDS011;64929;51.178;4.138;2022-11-15T16:34:06;0.45;;;0.38;;
76171;SDS011;64929;51.178;4.138;2022-11-15T16:36:32;1.45;;;0.73;;
76171;SDS011;64929;51.178;4.138;2022-11-15T16:38:59;0.60;;;0.55;;
76171;SDS011;64929;51.178;4.138;2022-11-15T16:41:28;0.55;;;0.55;;
76171;SDS011;64929;51.178;4.138;2022-11-15T16:43:54;0.60;;;0.60;;
76171;SDS011;64929;51.178;4.138;2022-11-15T16:46:21;1.00;;;0.50;;
76171;SDS011;64929;51.178;4.138;2022-11-15T16:48:51;0.60;;;0.50;;
76171;SDS011;64929;51.178;4.138;2022-11-15T16:51:18;0.73;;;0.40;;
76171;SDS011;64929;51.178;4.138;2022-11-15T16:53:44;0.60;;;0.50;;
76171;SDS011;64929;51.178;4.138;2022-11-15T16:58:49;1.30;;;0.90;;
76171;SDS011;64929;51.178;4.138;2022-11-15T17:01:20;1.23;;;0.77;;
76171;SDS011;64929;51.178;4.138;2022-11-15T17:03:48;0.77;;;0.65;;
76171;SDS011;64929;51.178;4.138;2022-11-15T17:06:13;1.23;;;0.57;;
76171;SDS011;64929;51.178;4.138;2022-11-15T17:08:39;0.75;;;0.70;;
76171;SDS011;64929;51.178;4.138;2022-11-15T17:11:06;0.77;;;0.65;;
76171;SDS011;64929;51.178;4.138;2022-11-15T17:13:32;1.08;;;0.98;;
76171;SDS011;64929;51.178;4.138;2022-11-15T17:16:05;0.70;;;0.70;;
76171;SDS011;64929;51.178;4.138;2022-11-15T17:18:32;0.57;;;0.57;;
76171;SDS011;64929;51.178;4.138;2022-11-15T17:21:02;0.70;;;0.60;;
76171;SDS011;64929;51.178;4.138;2022-11-15T17:23:29;3.55;;;0.95;;
76171;SDS011;64929;51.178;4.138;2022-11-15T17:25:58;0.68;;;0.60;;
76171;SDS011;64929;51.178;4.138;2022-11-15T17:28:24;0.95;;;0.77;;